Time;durP1;ratioP1;P1;durP2;ratioP2;P2;SDS_P1;SDS_P2;PMS_P1;PMS_P2;Temp;Humidity;BMP_temperature;BMP_pressure;BME280_temperature;BME280_humidity;BME280_pressure;Samples;Min_cycle;Max_cycle;Signal;HPM_P1;HPM_P2
2021/10/05 00:00:38;;;;;;;5.82;1.90;;;20.80;56.10;;;;;;4991656;28;20033;-63
2021/10/05 00:03:05;;;;;;;2.05;1.38;;;20.90;55.90;;;;;;5009913;28;20120;-73
2021/10/05 00:05:34;;;;;;;3.83;1.58;;;20.90;55.90;;;;;;5008883;28;20067;-68
2021/10/05 00:08:01;;;;;;;3.47;1.85;;;21.00;54.90;;;;;;5010027;28;20404;-71
2021/10/05 00:10:29;;;;;;;3.13;1.60;;;21.10;54.90;;;;;;5012250;28;20456;-71
2021/10/05 00:12:56;;;;;;;3.03;1.67;;;21.10;54.00;;;;;;5012599;28;20037;-67
2021/10/05 00:15:24;;;;;;;2.65;1.60;;;21.20;55.20;;;;;;5012086;28;20102;-66
2021/10/05 00:17:52;;;;;;;9.23;1.65;;;21.20;56.90;;;;;;5012220;28;20030;-62
2021/10/05 00:20:19;;;;;;;4.15;1.80;;;21.30;55.30;;;;;;5012219;28;20452;-68
2021/10/05 00:22:47;;;;;;;3.95;1.67;;;21.30;53.70;;;;;;5012152;28;20167;-65
2021/10/05 00:25:14;;;;;;;1.70;1.27;;;21.40;55.80;;;;;;5012031;28;20155;-67
2021/10/05 00:27:42;;;;;;;3.47;1.52;;;21.40;54.20;;;;;;4994581;28;20121;-67
2021/10/05 00:30:09;;;;;;;2.83;1.38;;;21.40;56.20;;;;;;4994470;28;20022;-63
2021/10/05 00:32:37;;;;;;;6.32;1.27;;;21.50;53.70;;;;;;5012041;28;20126;-64
2021/10/05 00:35:05;;;;;;;4.03;1.80;;;21.50;53.60;;;;;;5011962;28;20045;-67
2021/10/05 00:37:33;;;;;;;3.80;1.33;;;21.50;53.50;;;;;;5012171;28;20029;-68
2021/10/05 00:40:01;;;;;;;4.82;1.20;;;21.60;55.30;;;;;;5012191;28;20025;-70
2021/10/05 00:42:28;;;;;;;3.05;1.10;;;21.50;54.80;;;;;;5012228;28;20079;-70
2021/10/05 00:44:56;;;;;;;2.85;1.30;;;21.50;52.10;;;;;;5011926;28;20022;-71
2021/10/05 00:47:23;;;;;;;3.83;1.40;;;21.60;53.60;;;;;;5012356;28;20046;-72
2021/10/05 00:49:51;;;;;;;3.30;1.38;;;21.60;54.30;;;;;;5011917;28;20439;-73
2021/10/05 00:52:19;;;;;;;2.65;1.30;;;21.60;54.50;;;;;;5011743;28;20033;-66
2021/10/05 00:54:47;;;;;;;2.60;1.35;;;21.60;55.40;;;;;;5011991;28;20368;-69
2021/10/05 00:57:15;;;;;;;1.65;1.10;;;21.60;53.90;;;;;;5011470;28;20032;-69
2021/10/05 00:59:42;;;;;;;3.70;1.60;;;21.60;55.90;;;;;;4994550;28;20026;-63
2021/10/05 01:02:13;;;;;;;2.03;1.15;;;21.60;55.10;;;;;;5012409;28;20034;-61
2021/10/05 01:04:44;;;;;;;3.45;1.58;;;21.70;53.90;;;;;;5011714;28;20117;-69
2021/10/05 01:07:16;;;;;;;2.63;1.10;;;21.70;54.60;;;;;;5011433;28;20060;-61
2021/10/05 01:09:44;;;;;;;;;;;21.80;52.90;;;;;;4994624;28;20392;-67
2021/10/05 01:12:12;;;;;;;2.72;1.13;;;21.80;55.20;;;;;;5011847;28;19905;-70
2021/10/05 01:14:41;;;;;;;2.95;1.15;;;21.90;53.80;;;;;;5011369;28;20030;-63
2021/10/05 01:17:09;;;;;;;4.70;1.60;;;21.90;54.00;;;;;;4993666;28;20034;-66
2021/10/05 01:19:37;;;;;;;5.50;1.40;;;21.90;53.50;;;;;;5010005;28;20057;-67
2021/10/05 01:22:05;;;;;;;2.28;1.35;;;21.90;54.20;;;;;;4993446;28;20026;-69
2021/10/05 01:24:32;;;;;;;3.65;1.00;;;21.80;54.00;;;;;;5011763;28;20093;-64
2021/10/05 01:27:05;;;;;;;2.42;1.30;;;21.90;53.50;;;;;;5010944;28;20069;-71
2021/10/05 01:29:34;;;;;;;2.60;1.08;;;22.00;53.20;;;;;;5011066;28;20026;-69
2021/10/05 01:32:03;;;;;;;3.20;0.98;;;22.00;54.10;;;;;;5011328;28;20383;-67
2021/10/05 01:34:31;;;;;;;3.70;1.30;;;22.00;53.50;;;;;;5011195;28;20091;-67
2021/10/05 01:36:59;;;;;;;3.45;1.20;;;22.10;51.10;;;;;;5011136;28;20026;-67
2021/10/05 01:39:44;;;;;;;2.78;1.23;;;22.10;53.90;;;;;;5011174;28;20026;-64
2021/10/05 01:42:14;;;;;;;1.73;0.95;;;22.10;54.00;;;;;;5011046;28;20464;-65
2021/10/05 01:44:45;;;;;;;1.58;0.75;;;22.20;49.80;;;;;;4993971;28;20025;-70
2021/10/05 01:47:12;;;;;;;3.05;1.23;;;22.20;52.60;;;;;;5010337;28;20433;-69
2021/10/05 01:49:40;;;;;;;2.92;1.27;;;22.30;52.20;;;;;;4993475;28;20030;-69
2021/10/05 01:52:08;;;;;;;3.45;0.77;;;22.30;51.20;;;;;;4993338;28;20378;-65
2021/10/05 01:54:36;;;;;;;2.88;1.10;;;22.30;51.90;;;;;;5010598;28;20054;-68
2021/10/05 01:57:04;;;;;;;1.00;0.80;;;22.40;51.80;;;;;;5010912;28;20090;-70
2021/10/05 01:59:32;;;;;;;2.63;1.13;;;22.40;51.10;;;;;;5010632;28;20017;-66
2021/10/05 02:02:00;;;;;;;3.22;1.10;;;22.50;51.70;;;;;;5011283;28;20113;-70
2021/10/05 02:04:27;;;;;;;2.50;0.75;;;22.50;51.20;;;;;;5011924;28;20078;-71
2021/10/05 02:06:54;;;;;;;3.67;0.90;;;22.50;52.70;;;;;;5013565;28;20041;-67
2021/10/05 02:09:22;;;;;;;1.48;0.82;;;22.60;52.10;;;;;;5013307;28;20045;-71
2021/10/05 02:11:49;;;;;;;1.80;0.88;;;22.60;52.00;;;;;;5010786;28;20117;-71
2021/10/05 02:14:23;;;;;;;3.00;0.80;;;22.50;52.50;;;;;;5011461;28;20022;-71
2021/10/05 02:16:51;;;;;;;2.00;0.75;;;22.50;50.70;;;;;;5011356;28;20410;-68
2021/10/05 02:19:18;;;;;;;7.38;1.35;;;22.50;52.90;;;;;;5010449;28;20371;-69
2021/10/05 02:21:46;;;;;;;1.92;0.90;;;22.40;51.80;;;;;;5010519;28;20057;-69
2021/10/05 02:27:01;;;;;;;1.60;0.73;;;22.40;51.70;;;;;;5010992;28;20022;-70
2021/10/05 02:29:29;;;;;;;3.33;0.50;;;22.40;52.90;;;;;;5003809;28;20033;-70
2021/10/05 02:31:58;;;;;;;1.23;0.65;;;22.40;54.00;;;;;;5007748;28;20030;-67
2021/10/05 02:34:25;;;;;;;3.78;0.93;;;22.30;51.60;;;;;;4992037;28;20825;-59
2021/10/05 02:36:53;;;;;;;1.13;0.60;;;22.40;53.50;;;;;;5008412;28;20099;-61
2021/10/05 02:39:20;;;;;;;2.47;0.85;;;22.50;49.40;;;;;;5008836;28;20041;-64
2021/10/05 02:41:48;;;;;;;5.15;1.30;;;22.50;52.90;;;;;;5010460;28;20433;-69
2021/10/05 02:44:15;;;;;;;2.15;1.20;;;22.50;51.70;;;;;;5009480;28;20026;-69
2021/10/05 02:46:43;;;;;;;1.40;0.65;;;22.50;51.90;;;;;;5004662;28;20038;-62
2021/10/05 02:49:11;;;;;;;3.17;0.73;;;22.60;52.10;;;;;;5009902;28;21989;-63
2021/10/05 02:51:38;;;;;;;2.05;0.82;;;22.70;52.70;;;;;;5009416;28;20046;-65
2021/10/05 02:54:06;;;;;;;3.13;1.48;;;22.60;52.70;;;;;;5009823;28;20042;-66
2021/10/05 02:56:37;;;;;;;3.92;0.70;;;22.70;52.50;;;;;;5004829;28;20063;-62
2021/10/05 02:59:04;;;;;;;2.08;0.80;;;22.70;51.30;;;;;;4992185;28;20464;-63
2021/10/05 03:01:32;;;;;;;2.17;0.90;;;22.70;51.50;;;;;;5007892;28;20468;-61
2021/10/05 03:04:00;;;;;;;1.30;0.47;;;22.70;50.00;;;;;;5008507;28;20029;-63
2021/10/05 03:06:27;;;;;;;1.20;0.73;;;22.80;50.70;;;;;;5010048;28;20022;-67
2021/10/05 03:08:55;;;;;;;7.53;0.75;;;22.80;51.80;;;;;;5010164;28;20101;-70
2021/10/05 03:11:23;;;;;;;1.58;0.80;;;22.80;52.20;;;;;;5010198;28;20022;-70
2021/10/05 03:13:51;;;;;;;1.17;0.43;;;22.80;52.40;;;;;;5010092;28;20026;-64
2021/10/05 03:16:19;;;;;;;0.88;0.45;;;22.80;50.00;;;;;;5010514;28;20410;-67
2021/10/05 03:18:59;;;;;;;0.95;0.70;;;22.90;49.80;;;;;;5010058;28;20529;-67
2021/10/05 03:21:27;;;;;;;1.60;0.60;;;23.00;50.40;;;;;;5010004;28;20022;-64
2021/10/05 03:23:54;;;;;;;2.53;0.93;;;23.00;49.40;;;;;;5010033;28;20034;-62
2021/10/05 03:26:22;;;;;;;1.58;0.75;;;23.00;47.70;;;;;;5010323;28;20408;-65
2021/10/05 03:28:50;;;;;;;2.70;1.05;;;23.00;49.80;;;;;;5011146;28;20022;-63
2021/10/05 03:31:21;;;;;;;2.75;0.70;;;23.10;48.50;;;;;;4992329;28;20048;-62
2021/10/05 03:33:49;;;;;;;2.28;0.70;;;23.20;46.00;;;;;;4992358;28;20030;-68
2021/10/05 03:36:17;;;;;;;6.45;0.70;;;23.20;50.80;;;;;;5009488;28;20375;-67
2021/10/05 03:38:45;;;;;;;1.02;0.75;;;23.20;50.70;;;;;;4998166;28;20063;-58
2021/10/05 03:41:13;;;;;;;1.90;0.70;;;23.20;50.70;;;;;;5006240;28;20033;-68
2021/10/05 03:43:41;;;;;;;6.82;1.15;;;23.20;49.80;;;;;;4993825;28;20056;-66
2021/10/05 03:46:09;;;;;;;1.40;0.50;;;23.20;49.30;;;;;;4993797;28;20029;-63
2021/10/05 03:48:36;;;;;;;4.85;1.17;;;23.30;49.80;;;;;;4988931;28;20048;-65
2021/10/05 03:51:04;;;;;;;0.57;0.43;;;23.40;48.60;;;;;;5011681;28;20026;-70
2021/10/05 03:53:31;;;;;;;2.90;0.80;;;23.50;51.30;;;;;;5011547;28;20454;-62
2021/10/05 03:55:59;;;;;;;1.60;0.90;;;23.40;48.90;;;;;;5011153;28;20484;-65
2021/10/05 03:58:27;;;;;;;3.80;0.73;;;23.50;49.90;;;;;;5006310;28;20022;-63
2021/10/05 04:00:55;;;;;;;3.90;0.70;;;23.60;48.30;;;;;;5010841;28;20030;-66
2021/10/05 04:03:24;;;;;;;3.13;1.15;;;23.60;48.70;;;;;;4993760;28;20022;-64
2021/10/05 04:05:54;;;;;;;6.50;1.13;;;23.60;49.40;;;;;;5011316;28;20022;-63
2021/10/05 04:08:22;;;;;;;4.28;0.70;;;23.60;49.20;;;;;;5005746;28;20045;-56
2021/10/05 04:10:50;;;;;;;3.72;0.80;;;23.70;47.50;;;;;;4992559;28;20480;-63
2021/10/05 04:13:17;;;;;;;3.67;0.60;;;23.60;50.70;;;;;;5012280;28;20553;-62
2021/10/05 04:15:45;;;;;;;3.42;0.80;;;23.70;48.10;;;;;;5007833;28;20026;-60
2021/10/05 04:18:13;;;;;;;1.65;0.70;;;23.70;50.70;;;;;;5011372;28;20053;-58
2021/10/05 04:20:40;;;;;;;1.08;0.55;;;23.50;50.40;;;;;;5006657;28;20116;-61
2021/10/05 04:23:08;;;;;;;1.50;0.63;;;23.60;50.10;;;;;;5011333;28;20034;-59
2021/10/05 04:25:35;;;;;;;1.50;0.60;;;23.60;47.60;;;;;;5012105;28;20079;-57
2021/10/05 04:28:03;;;;;;;1.33;0.50;;;23.70;45.90;;;;;;4995361;28;20033;-56
2021/10/05 04:30:31;;;;;;;2.80;0.90;;;23.70;48.60;;;;;;5007642;28;20112;-66
2021/10/05 04:32:58;;;;;;;1.70;0.70;;;23.70;49.50;;;;;;5004706;28;20049;-64
2021/10/05 04:35:26;;;;;;;1.27;0.65;;;23.70;51.20;;;;;;5014619;28;20033;-66
2021/10/05 04:37:54;;;;;;;1.90;0.70;;;23.70;49.70;;;;;;4996221;28;20468;-64
2021/10/05 04:40:21;;;;;;;0.85;0.60;;;23.70;47.30;;;;;;5011616;28;20026;-60
2021/10/05 04:42:56;;;;;;;1.45;0.70;;;23.70;49.80;;;;;;5008738;28;20025;-57
2021/10/05 04:45:24;;;;;;;1.83;0.70;;;23.70;49.30;;;;;;5010844;28;20034;-60
2021/10/05 04:47:52;;;;;;;2.05;0.70;;;23.70;50.10;;;;;;5011871;28;20418;-63
2021/10/05 04:50:20;;;;;;;1.90;0.57;;;23.60;51.20;;;;;;5011173;28;20026;-68
2021/10/05 04:52:47;;;;;;;1.40;0.77;;;23.60;52.20;;;;;;5005663;28;20381;-60
2021/10/05 04:55:15;;;;;;;0.95;0.60;;;23.60;48.00;;;;;;5006022;28;20022;-64
2021/10/05 04:57:45;;;;;;;3.78;0.90;;;23.60;49.60;;;;;;5010917;28;20046;-61
2021/10/05 05:00:13;;;;;;;2.25;0.80;;;23.50;48.90;;;;;;5009727;28;20107;-56
2021/10/05 05:02:45;;;;;;;4.07;0.90;;;23.60;49.40;;;;;;5005900;28;20026;-59
2021/10/05 05:05:31;;;;;;;4.33;1.30;;;23.60;50.30;;;;;;5010927;28;20056;-59
2021/10/05 05:08:04;;;;;;;2.08;0.63;;;23.60;49.20;;;;;;5007635;28;20645;-63
2021/10/05 05:10:33;;;;;;;3.13;0.90;;;23.70;48.90;;;;;;4988761;28;20369;-60
2021/10/05 05:13:01;;;;;;;1.52;0.50;;;23.60;48.90;;;;;;5005612;28;20083;-64
2021/10/05 05:15:28;;;;;;;3.22;1.20;;;23.50;49.10;;;;;;5006332;28;20101;-67
2021/10/05 05:17:55;;;;;;;3.08;0.93;;;23.50;50.70;;;;;;5010590;28;20026;-63
2021/10/05 05:20:23;;;;;;;2.25;1.13;;;23.50;51.00;;;;;;4992595;28;20056;-64
2021/10/05 05:22:50;;;;;;;2.30;1.17;;;23.50;49.70;;;;;;5006099;28;20030;-64
2021/10/05 05:25:18;;;;;;;5.95;1.60;;;23.40;52.20;;;;;;5010260;28;20095;-67
2021/10/05 05:27:46;;;;;;;3.78;1.80;;;23.40;51.10;;;;;;5010711;28;20132;-66
2021/10/05 05:30:13;;;;;;;5.03;1.90;;;23.40;50.40;;;;;;5009976;28;20022;-65
2021/10/05 05:32:41;;;;;;;4.10;1.95;;;23.40;49.10;;;;;;5005826;28;20030;-59
2021/10/05 05:35:09;;;;;;;5.15;2.25;;;23.40;49.90;;;;;;5011274;28;20045;-61
2021/10/05 05:37:37;;;;;;;2.47;1.98;;;23.40;49.00;;;;;;5011074;28;20026;-58
2021/10/05 05:40:05;;;;;;;4.15;3.05;;;23.40;51.90;;;;;;5011611;28;20464;-60
2021/10/05 05:42:36;;;;;;;5.68;3.55;;;23.30;51.90;;;;;;5011223;28;20038;-59
2021/10/05 05:45:59;;;;;;;5.40;3.10;;;23.30;50.40;;;;;;5011535;28;20058;-62
2021/10/05 05:48:27;;;;;;;6.15;4.28;;;23.30;49.00;;;;;;5009223;28;20065;-71
2021/10/05 05:51:12;;;;;;;5.95;4.00;;;23.20;53.80;;;;;;4994110;28;20108;-71
2021/10/05 05:53:40;;;;;;;8.05;3.80;;;23.20;51.80;;;;;;5011549;28;20057;-68
2021/10/05 05:56:07;;;;;;;7.65;3.75;;;23.20;49.50;;;;;;5011173;28;20018;-62
2021/10/05 05:58:38;;;;;;;5.53;3.75;;;23.20;51.10;;;;;;5011351;28;20376;-61
2021/10/05 06:01:05;;;;;;;6.50;3.90;;;23.20;50.90;;;;;;5010985;28;20017;-64
2021/10/05 06:03:33;;;;;;;5.97;4.15;;;23.20;49.80;;;;;;5011531;28;20033;-60
2021/10/05 06:06:01;;;;;;;6.90;4.18;;;23.10;51.80;;;;;;5009645;28;20417;-65
2021/10/05 06:08:29;;;;;;;5.90;3.67;;;23.10;50.20;;;;;;5011036;28;20029;-64
2021/10/05 06:10:56;;;;;;;6.20;4.25;;;23.10;52.00;;;;;;5010755;28;20026;-65
2021/10/05 06:13:23;;;;;;;4.97;3.65;;;23.00;51.50;;;;;;4991168;28;20031;-65
2021/10/05 06:15:51;;;;;;;8.25;3.85;;;23.10;49.10;;;;;;5008737;28;20109;-65
2021/10/05 06:18:19;;;;;;;5.50;4.55;;;23.10;49.90;;;;;;5010780;28;20022;-64
2021/10/05 06:20:46;;;;;;;6.03;4.50;;;23.00;51.20;;;;;;5010605;28;20030;-70
2021/10/05 06:23:14;;;;;;;4.47;3.50;;;23.00;52.10;;;;;;5010519;28;20034;-66
2021/10/05 06:25:44;;;;;;;4.70;3.72;;;23.00;50.30;;;;;;5010894;28;20034;-64
2021/10/05 06:28:15;;;;;;;4.70;4.07;;;23.00;49.70;;;;;;4992927;28;20042;-53
2021/10/05 06:30:43;;;;;;;5.22;4.15;;;23.00;51.20;;;;;;5010250;28;20425;-63
2021/10/05 06:33:10;;;;;;;5.80;3.80;;;23.00;50.60;;;;;;5010721;28;20129;-68
2021/10/05 06:35:38;;;;;;;8.25;4.28;;;22.90;50.10;;;;;;5010446;28;20349;-68
2021/10/05 06:38:05;;;;;;;8.05;3.97;;;22.90;50.90;;;;;;5095073;28;20355;-68
2021/10/05 06:40:36;;;;;;;5.78;3.53;;;22.90;52.50;;;;;;5010326;28;20022;-67
2021/10/05 06:43:06;;;;;;;7.32;3.70;;;22.80;52.00;;;;;;5009666;28;20029;-58
2021/10/05 06:45:34;;;;;;;6.13;3.85;;;22.80;53.40;;;;;;5010339;28;20014;-68
2021/10/05 06:48:02;;;;;;;5.97;3.83;;;22.70;52.30;;;;;;5009449;28;20109;-65
2021/10/05 06:50:36;;;;;;;5.18;3.88;;;22.70;53.60;;;;;;5009249;28;20050;-66
2021/10/05 06:53:05;;;;;;;6.85;3.58;;;22.60;51.00;;;;;;4992476;28;20042;-67
2021/10/05 06:55:33;;;;;;;5.63;3.70;;;22.60;52.30;;;;;;5010332;28;20387;-67
2021/10/05 06:58:01;;;;;;;4.57;3.13;;;22.60;53.80;;;;;;5001530;28;20049;-60
2021/10/05 07:00:29;;;;;;;6.45;3.80;;;22.50;50.90;;;;;;5008414;28;20033;-59
2021/10/05 07:02:57;;;;;;;5.75;3.30;;;22.50;53.40;;;;;;4991139;28;20037;-56
2021/10/05 07:05:24;;;;;;;4.97;3.45;;;22.50;52.50;;;;;;5010004;28;20037;-60
2021/10/05 07:08:31;;;;;;;7.95;3.83;;;22.40;54.00;;;;;;5007903;28;20049;-62
2021/10/05 07:10:59;;;;;;;5.35;2.75;;;22.40;52.30;;;;;;5008084;28;20200;-64
2021/10/05 07:13:27;;;;;;;7.22;3.45;;;22.40;53.60;;;;;;5008699;28;20037;-62
2021/10/05 07:15:55;;;;;;;6.50;3.72;;;22.30;53.40;;;;;;5006841;28;20029;-59
2021/10/05 07:18:23;;;;;;;4.82;2.85;;;22.30;55.00;;;;;;4994165;28;20030;-60
2021/10/05 07:21:04;;;;;;;7.13;3.58;;;22.30;53.90;;;;;;5009091;28;20037;-64
2021/10/05 07:23:32;;;;;;;7.63;3.72;;;22.20;54.50;;;;;;5011469;28;20022;-62
2021/10/05 07:26:03;;;;;;;6.72;3.72;;;22.20;53.30;;;;;;5009443;28;20473;-61
2021/10/05 07:28:31;;;;;;;7.00;3.40;;;22.20;54.10;;;;;;5009604;28;20078;-56
2021/10/05 07:31:08;;;;;;;5.18;3.10;;;22.10;53.90;;;;;;5012603;28;20039;-63
2021/10/05 07:33:36;;;;;;;5.28;2.92;;;22.10;54.60;;;;;;5012773;28;20022;-60
2021/10/05 07:36:07;;;;;;;4.22;2.92;;;22.00;53.90;;;;;;5008313;28;20089;-67
2021/10/05 07:38:36;;;;;;;6.72;3.25;;;22.00;54.30;;;;;;5012754;28;20026;-62
2021/10/05 07:41:27;;;;;;;3.80;2.75;;;22.00;54.40;;;;;;5013653;28;20041;-62
2021/10/05 07:43:57;;;;;;;5.80;2.85;;;21.90;53.90;;;;;;5011277;28;20067;-59
2021/10/05 07:46:25;;;;;;;4.60;3.38;;;21.90;54.00;;;;;;5008515;28;20104;-65
2021/10/05 07:48:56;;;;;;;4.32;2.50;;;21.90;55.30;;;;;;5010599;28;20110;-61
2021/10/05 07:52:38;;;;;;;4.30;2.92;;;21.80;55.00;;;;;;4993948;28;20029;-58
2021/10/05 07:55:11;;;;;;;6.00;3.45;;;21.80;55.00;;;;;;4990570;28;20053;-59
2021/10/05 07:58:18;;;;;;;;;;;;;;;;;;;;;
2021/10/05 08:00:46;;;;;;;4.38;2.55;;;21.70;55.90;;;;;;5012953;28;20038;-59
2021/10/05 08:03:43;;;;;;;4.28;2.67;;;21.60;56.40;;;;;;5009661;28;20054;-56
2021/10/05 08:06:11;;;;;;;4.72;3.25;;;21.60;56.80;;;;;;5008188;28;20030;-55
2021/10/05 08:08:41;;;;;;;6.40;3.13;;;21.50;56.40;;;;;;5010126;28;20041;-63
2021/10/05 08:11:09;;;;;;;9.23;2.85;;;21.50;56.60;;;;;;5012526;28;20022;-61
2021/10/05 08:13:42;;;;;;;4.82;3.40;;;21.40;56.80;;;;;;5011433;28;20105;-55
2021/10/05 08:16:10;;;;;;;4.65;2.45;;;21.40;57.20;;;;;;5004163;28;21071;-60
2021/10/05 08:18:41;;;;;;;5.22;3.05;;;21.40;57.30;;;;;;5010535;28;20029;-62
2021/10/05 08:21:11;;;;;;;3.08;1.95;;;21.30;58.00;;;;;;5008253;28;20054;-57
2021/10/05 08:23:38;;;;;;;4.07;2.50;;;21.30;57.30;;;;;;5006922;28;20503;-55
2021/10/05 08:26:06;;;;;;;8.68;3.33;;;21.30;57.90;;;;;;4989078;28;20110;-61
2021/10/05 08:28:34;;;;;;;5.10;2.80;;;21.20;57.90;;;;;;4992234;28;20034;-58
2021/10/05 08:31:01;;;;;;;3.35;2.80;;;21.20;57.40;;;;;;5011564;28;20068;-58
2021/10/05 08:33:29;;;;;;;4.88;2.63;;;21.10;58.30;;;;;;5010625;28;20026;-56
2021/10/05 08:36:01;;;;;;;6.28;3.42;;;21.10;58.10;;;;;;5007464;28;20041;-62
2021/10/05 08:38:29;;;;;;;5.03;2.90;;;21.00;57.00;;;;;;4993626;28;20033;-54
2021/10/05 08:40:57;;;;;;;6.22;3.25;;;21.00;57.30;;;;;;5010821;28;20545;-60
2021/10/05 08:43:25;;;;;;;5.68;3.05;;;21.00;58.70;;;;;;4978000;28;20042;-60
2021/10/05 08:45:57;;;;;;;4.82;2.65;;;21.00;58.60;;;;;;5006345;28;20026;-66
2021/10/05 08:48:30;;;;;;;;;;;21.00;57.80;;;;;;5010236;28;20125;-65
2021/10/05 08:50:58;;;;;;;6.50;2.70;;;21.00;57.90;;;;;;5009301;28;19928;-62
2021/10/05 08:53:26;;;;;;;3.80;2.60;;;21.00;57.70;;;;;;4990789;28;20045;-65
2021/10/05 08:55:54;;;;;;;5.03;2.90;;;21.00;57.90;;;;;;4988726;28;20039;-67
2021/10/05 08:58:22;;;;;;;4.57;2.60;;;21.00;58.00;;;;;;5008702;28;20025;-66
2021/10/05 09:00:49;;;;;;;5.60;3.00;;;20.90;57.80;;;;;;5008378;28;20026;-66
2021/10/05 09:03:25;;;;;;;8.88;2.65;;;20.90;57.40;;;;;;5008626;28;20034;-62
2021/10/05 09:06:08;;;;;;;4.40;2.80;;;20.90;58.00;;;;;;4990737;28;20026;-63
2021/10/05 09:08:40;;;;;;;3.25;2.30;;;20.90;57.40;;;;;;5007767;28;20113;-65
2021/10/05 09:11:09;;;;;;;4.28;2.28;;;20.90;57.60;;;;;;5008472;28;20026;-60
2021/10/05 09:13:40;;;;;;;3.38;2.38;;;20.90;57.60;;;;;;5010021;28;20079;-58
2021/10/05 09:16:18;;;;;;;5.78;2.28;;;20.90;57.80;;;;;;5003800;28;20481;-60
2021/10/05 09:19:02;;;;;;;4.35;2.65;;;20.90;57.60;;;;;;5006389;28;20038;-61
2021/10/05 09:21:43;;;;;;;5.28;2.25;;;20.80;57.60;;;;;;5009091;28;20417;-64
2021/10/05 09:24:14;;;;;;;6.20;2.80;;;20.80;57.50;;;;;;5009817;28;20044;-71
2021/10/05 09:26:49;;;;;;;3.63;2.73;;;20.80;57.60;;;;;;5001367;28;20070;-54
2021/10/05 09:29:26;;;;;;;4.68;2.72;;;20.80;57.70;;;;;;5006480;28;20056;-62
2021/10/05 09:32:07;;;;;;;3.75;2.30;;;20.80;57.70;;;;;;5010770;28;20044;-63
2021/10/05 09:34:44;;;;;;;4.68;2.65;;;20.80;57.70;;;;;;5009923;28;20381;-64
2021/10/05 09:37:19;;;;;;;4.05;2.25;;;20.80;57.50;;;;;;5004534;28;20034;-57
2021/10/05 09:39:47;;;;;;;5.60;2.70;;;20.70;57.40;;;;;;5009748;28;20048;-66
2021/10/05 09:42:24;;;;;;;5.13;2.50;;;20.70;57.70;;;;;;5006717;28;20079;-61
2021/10/05 09:44:54;;;;;;;6.03;2.67;;;20.70;57.40;;;;;;5007166;28;20337;-58
2021/10/05 09:47:43;;;;;;;4.03;2.30;;;20.70;57.60;;;;;;4987101;28;20488;-62
2021/10/05 09:50:32;;;;;;;5.70;2.38;;;20.60;57.50;;;;;;5009915;28;20137;-68
2021/10/05 09:53:05;;;;;;;5.15;2.30;;;20.70;57.70;;;;;;5007989;28;20045;-61
2021/10/05 09:55:38;;;;;;;5.22;2.65;;;20.60;58.40;;;;;;5009566;28;20167;-62
2021/10/05 09:58:07;;;;;;;5.45;2.50;;;20.60;57.50;;;;;;5004013;28;20033;-64
2021/10/05 10:00:41;;;;;;;4.15;2.47;;;20.60;58.10;;;;;;5009584;28;20026;-66
2021/10/05 10:03:22;;;;;;;7.80;2.72;;;20.50;57.80;;;;;;5010201;28;20030;-59
2021/10/05 10:06:09;;;;;;;4.35;2.35;;;20.50;57.40;;;;;;4989977;28;20495;-54
2021/10/05 10:09:07;;;;;;;6.78;1.98;;;20.50;57.60;;;;;;5009373;28;20420;-56
2021/10/05 10:11:38;;;;;;;4.40;2.58;;;20.50;57.80;;;;;;5008353;28;20030;-60
2021/10/05 10:14:06;;;;;;;6.60;2.70;;;20.40;57.20;;;;;;5009137;28;20018;-60
2021/10/05 10:16:56;;;;;;;6.25;2.42;;;20.40;57.60;;;;;;5003876;28;20018;-62
2021/10/05 10:19:43;;;;;;;3.72;2.35;;;20.40;57.30;;;;;;4993736;28;20533;-56
2021/10/05 10:22:12;;;;;;;3.78;2.25;;;20.40;57.40;;;;;;4990652;28;20030;-61
2021/10/05 10:24:46;;;;;;;3.63;2.40;;;20.40;57.80;;;;;;5009919;28;20026;-61
2021/10/05 10:28:01;;;;;;;3.45;2.33;;;20.30;57.50;;;;;;5003771;28;20037;-60
2021/10/05 10:30:29;;;;;;;6.60;2.95;;;20.30;58.00;;;;;;4998294;28;20040;-58
2021/10/05 10:33:02;;;;;;;7.45;2.25;;;20.30;58.20;;;;;;5006102;28;20034;-60
2021/10/05 10:35:30;;;;;;;5.05;2.70;;;20.20;57.70;;;;;;5010333;28;20484;-61
2021/10/05 10:37:58;;;;;;;5.53;2.00;;;20.20;57.70;;;;;;5010726;28;20033;-62
2021/10/05 10:40:37;;;;;;;6.57;2.47;;;20.20;57.60;;;;;;5010480;28;20030;-62
2021/10/05 10:43:20;;;;;;;6.60;2.40;;;20.20;57.60;;;;;;5010197;28;20502;-64
2021/10/05 10:45:56;;;;;;;4.65;2.05;;;20.20;57.80;;;;;;5010103;28;20503;-67
2021/10/05 10:48:39;;;;;;;5.38;2.70;;;20.10;57.70;;;;;;5009712;28;20117;-66
2021/10/05 10:51:20;;;;;;;5.10;2.50;;;20.10;57.80;;;;;;5009956;28;20021;-68
2021/10/05 10:53:51;;;;;;;4.55;2.63;;;20.10;57.80;;;;;;5010041;28;20052;-67
2021/10/05 10:56:35;;;;;;;4.53;2.13;;;20.10;57.70;;;;;;5009657;28;20026;-65
2021/10/05 10:59:12;;;;;;;5.32;2.20;;;20.10;57.70;;;;;;5009666;28;20026;-68
2021/10/05 11:01:46;;;;;;;4.93;2.08;;;20.00;57.50;;;;;;5010123;28;20101;-71
2021/10/05 11:04:16;;;;;;;5.97;2.80;;;20.00;57.40;;;;;;5009935;28;20033;-69
2021/10/05 11:06:48;;;;;;;3.35;2.00;;;20.00;57.60;;;;;;5009797;28;20038;-65
2021/10/05 11:09:15;;;;;;;;;;;20.00;57.50;;;;;;4992779;28;20026;-70
2021/10/05 11:11:43;;;;;;;3.15;2.05;;;20.00;57.50;;;;;;5010115;28;19905;-69
2021/10/05 11:14:19;;;;;;;5.47;2.67;;;20.00;57.60;;;;;;5003063;28;20057;-65
2021/10/05 11:16:54;;;;;;;5.00;2.25;;;20.00;57.70;;;;;;5007526;28;20052;-59
2021/10/05 11:19:26;;;;;;;5.75;2.60;;;19.90;58.30;;;;;;5008441;28;20033;-62
2021/10/05 11:21:57;;;;;;;6.45;2.75;;;19.90;58.40;;;;;;5009947;28;20458;-59
2021/10/05 11:24:36;;;;;;;7.55;2.30;;;19.90;58.60;;;;;;5011414;28;20476;-63
2021/10/05 11:27:09;;;;;;;4.72;2.50;;;19.90;58.50;;;;;;5011452;28;20065;-57
2021/10/05 11:29:38;;;;;;;5.18;2.17;;;19.90;58.70;;;;;;4989273;28;20022;-58
2021/10/05 11:32:08;;;;;;;7.60;3.00;;;19.90;58.60;;;;;;5006386;28;20030;-60
2021/10/05 11:34:40;;;;;;;3.75;1.90;;;19.80;58.40;;;;;;5008937;28;20014;-60
2021/10/05 11:37:11;;;;;;;4.53;2.30;;;19.80;58.50;;;;;;5006196;28;20026;-61
2021/10/05 11:39:40;;;;;;;5.55;2.78;;;19.80;58.30;;;;;;4990895;28;20453;-60
2021/10/05 11:42:17;;;;;;;3.85;2.05;;;19.80;58.10;;;;;;5005993;28;20022;-61
2021/10/05 11:44:47;;;;;;;5.00;2.47;;;19.80;58.10;;;;;;5006238;28;20030;-62
2021/10/05 11:47:17;;;;;;;7.60;2.55;;;19.80;58.40;;;;;;5009059;28;20030;-62
2021/10/05 11:50:12;;;;;;;5.00;2.45;;;19.80;58.30;;;;;;5007660;28;20022;-61
2021/10/05 11:53:08;;;;;;;5.50;2.50;;;19.80;58.40;;;;;;5007123;28;20083;-63
2021/10/05 11:55:37;;;;;;;4.53;2.10;;;19.80;58.20;;;;;;5007564;28;20278;-61
2021/10/05 11:58:05;;;;;;;5.88;2.45;;;19.70;58.00;;;;;;5008813;28;20040;-64
2021/10/05 12:00:32;;;;;;;7.82;2.40;;;19.70;58.00;;;;;;5005790;28;20046;-61
2021/10/05 12:03:00;;;;;;;4.38;2.17;;;19.70;58.00;;;;;;4978312;28;20082;-59
2021/10/05 12:05:28;;;;;;;4.32;1.90;;;19.70;57.90;;;;;;4992833;28;20019;-56
2021/10/05 12:07:58;;;;;;;5.63;2.33;;;19.70;57.90;;;;;;4993277;28;20039;-61
2021/10/05 12:10:25;;;;;;;7.60;2.53;;;19.60;57.80;;;;;;4993140;28;20019;-58
2021/10/05 12:12:53;;;;;;;2.83;1.77;;;19.60;57.80;;;;;;4993026;28;20105;-61
2021/10/05 12:15:23;;;;;;;6.78;2.30;;;19.60;57.70;;;;;;4992939;28;20071;-58
2021/10/05 12:18:09;;;;;;;8.00;2.55;;;19.60;57.60;;;;;;4975714;28;20023;-67
2021/10/05 12:20:36;;;;;;;4.35;2.50;;;19.60;57.40;;;;;;4993221;28;20019;-63
2021/10/05 12:23:08;;;;;;;4.82;2.60;;;19.60;57.30;;;;;;4993509;28;20110;-67
2021/10/05 12:25:40;;;;;;;3.85;1.83;;;19.50;57.20;;;;;;4993146;28;20022;-67
2021/10/05 12:28:08;;;;;;;3.38;1.65;;;19.50;57.00;;;;;;5007017;28;20034;-64
2021/10/05 12:30:36;;;;;;;5.95;2.38;;;19.50;57.00;;;;;;5013161;28;20069;-68
2021/10/05 12:33:12;;;;;;;6.22;2.45;;;19.50;57.00;;;;;;5012651;28;20156;-58
2021/10/05 12:36:23;;;;;;;5.93;2.40;;;19.50;56.90;;;;;;4995361;28;20022;-56
2021/10/05 12:38:51;;;;;;;4.28;1.92;;;19.50;56.80;;;;;;5013551;28;20133;-61
2021/10/05 12:44:56;;;;;;;6.38;2.28;;;19.40;56.90;;;;;;4914577;28;20102;-64
2021/10/05 12:47:23;;;;;;;3.75;1.95;;;19.40;56.90;;;;;;4913319;29;20483;-65
2021/10/05 12:49:54;;;;;;;4.22;1.65;;;19.40;56.90;;;;;;5000340;28;20103;-66
2021/10/05 12:52:24;;;;;;;3.55;1.70;;;19.40;57.00;;;;;;5012306;28;20054;-67
2021/10/05 12:54:52;;;;;;;5.30;2.30;;;19.40;57.00;;;;;;5012167;28;20094;-67
2021/10/05 12:57:19;;;;;;;7.78;1.90;;;19.40;57.00;;;;;;4994308;28;20058;-64
2021/10/05 12:59:54;;;;;;;4.03;1.85;;;19.40;57.00;;;;;;5012096;28;20045;-67
2021/10/05 13:02:21;;;;;;;4.53;2.08;;;19.40;56.80;;;;;;5012762;28;20364;-60
2021/10/05 13:04:48;;;;;;;4.90;2.63;;;19.30;56.90;;;;;;5012573;28;20099;-61
2021/10/05 13:07:16;;;;;;;6.03;2.50;;;19.30;56.90;;;;;;5012465;28;20062;-60
2021/10/05 13:09:43;;;;;;;10.02;2.50;;;19.30;56.80;;;;;;5006835;28;20075;-60
2021/10/05 13:12:11;;;;;;;5.15;2.17;;;19.30;57.00;;;;;;5006619;28;20046;-60
2021/10/05 13:14:38;;;;;;;4.60;2.13;;;19.30;56.90;;;;;;5010424;28;20480;-62